createdAt,value
2018-01-12T00:01:40.324Z,8.10
2018-01-12T00:04:09.398Z,8.12
2018-01-12T00:06:39.509Z,8.12
2018-01-12T00:09:08.613Z,8.05
2018-01-12T00:11:38.474Z,8.04
2018-01-12T00:14:10.394Z,8.02
2018-01-12T00:16:39.482Z,7.98
2018-01-12T00:19:08.663Z,8.01
2018-01-12T00:21:39.517Z,8.07
2018-01-12T00:24:08.545Z,8.14
2018-01-12T00:26:37.603Z,8.18
2018-01-12T00:29:08.524Z,8.21
2018-01-12T00:31:38.344Z,8.13
2018-01-12T00:34:08.916Z,8.21
2018-01-12T00:36:38.698Z,8.26
2018-01-12T00:39:07.828Z,8.17
2018-01-12T00:41:37.107Z,8.20
2018-01-12T00:44:06.193Z,8.26
2018-01-12T00:46:35.323Z,8.16
2018-01-12T00:49:05.551Z,8.15
2018-01-12T00:51:35.052Z,8.14
2018-01-12T00:54:05.148Z,8.22
2018-01-12T00:56:34.127Z,8.23
2018-01-12T00:59:05.472Z,8.15
2018-01-12T01:01:36.111Z,8.16
2018-01-12T01:04:05.205Z,8.22
2018-01-12T01:06:36.757Z,8.25
2018-01-12T01:09:05.891Z,8.29
2018-01-12T01:11:34.996Z,8.14
2018-01-12T01:14:04.046Z,8.07
2018-01-12T01:16:33.208Z,8.09
2018-01-12T01:19:02.306Z,8.10
2018-01-12T01:21:32.392Z,8.17
2018-01-12T01:24:01.451Z,8.12
2018-01-12T01:26:30.640Z,8.06
2018-01-12T01:29:01.281Z,8.13
2018-01-12T01:31:30.674Z,8.11
2018-01-12T01:33:59.689Z,8.05
2018-01-12T01:36:28.678Z,8.08
2018-01-12T01:38:57.669Z,8.07
2018-01-12T01:41:27.555Z,8.06
2018-01-12T01:43:59.035Z,8.13
2018-01-12T01:46:29.775Z,8.08
2018-01-12T01:48:58.908Z,8.09
2018-01-12T01:51:29.446Z,8.19
2018-01-12T01:53:58.523Z,8.19
2018-01-12T01:56:27.615Z,8.19
2018-01-12T01:58:56.714Z,8.13
2018-01-12T02:01:26.493Z,8.03
2018-01-12T02:03:55.692Z,7.91
2018-01-12T02:06:25.033Z,7.89
2018-01-12T02:08:54.901Z,7.84
2018-01-12T02:11:23.908Z,7.75
2018-01-12T02:13:54.359Z,7.75
2018-01-12T02:16:23.527Z,7.78
2018-01-12T02:18:53.447Z,7.71
2018-01-12T02:21:22.746Z,7.64
2018-01-12T02:23:52.696Z,7.39
2018-01-12T02:26:21.638Z,7.35
2018-01-12T02:28:51.034Z,7.25
2018-01-12T02:31:19.882Z,7.28
2018-01-12T02:33:56.523Z,7.21
2018-01-12T02:36:26.166Z,7.21
2018-01-12T02:38:55.147Z,7.06
2018-01-12T02:41:25.100Z,6.99
2018-01-12T02:43:54.018Z,6.97
2018-01-12T02:46:22.972Z,6.92
2018-01-12T02:48:53.871Z,6.94
2018-01-12T02:51:24.085Z,6.91
2018-01-12T02:53:52.976Z,6.95
2018-01-12T02:56:21.973Z,7.06
2018-01-12T02:58:52.090Z,7.09
2018-01-12T03:01:21.026Z,7.15
2018-01-12T03:03:49.974Z,7.03
2018-01-12T03:06:19.067Z,7.07
2018-01-12T03:08:48.167Z,7.11
2018-01-12T03:11:17.195Z,7.04
2018-01-12T03:13:46.095Z,7.03
2018-01-12T03:16:15.185Z,6.96
2018-01-12T03:18:47.095Z,6.94
2018-01-12T03:21:16.038Z,6.92
2018-01-12T03:23:44.963Z,6.84
2018-01-12T03:26:14.740Z,6.79
2018-01-12T03:28:43.730Z,6.84
2018-01-12T03:31:13.779Z,6.75
2018-01-12T03:33:43.728Z,6.79
2018-01-12T03:36:13.483Z,6.79
2018-01-12T03:38:42.609Z,6.83
2018-01-12T03:41:11.718Z,6.75
2018-01-12T03:43:40.692Z,6.73
2018-01-12T03:46:09.555Z,6.71
2018-01-12T03:48:41.424Z,6.71
2018-01-12T03:51:10.520Z,6.68
2018-01-12T03:53:39.519Z,6.75
2018-01-12T03:56:08.547Z,6.78
2018-01-12T03:58:37.547Z,6.82
2018-01-12T04:01:06.488Z,6.87
2018-01-12T04:03:35.528Z,6.76
2018-01-12T04:06:06.254Z,6.80
2018-01-12T04:08:36.057Z,6.67
2018-01-12T04:11:05.942Z,6.64
2018-01-12T04:13:35.039Z,6.66
2018-01-12T04:16:13.001Z,6.70
2018-01-12T04:18:42.756Z,6.79
2018-01-12T04:21:12.024Z,6.68
2018-01-12T04:23:41.701Z,6.71
2018-01-12T04:26:10.692Z,6.65
2018-01-12T04:28:39.757Z,6.64
2018-01-12T04:31:09.053Z,6.59
2018-01-12T04:33:38.050Z,6.59
2018-01-12T04:36:07.026Z,6.59
2018-01-12T04:38:36.956Z,6.66
2018-01-12T04:41:05.853Z,6.70
2018-01-12T04:43:34.942Z,6.63
2018-01-12T04:46:04.704Z,6.70
2018-01-12T04:48:34.500Z,6.66
2018-01-12T04:51:05.132Z,6.64
2018-01-12T04:53:34.315Z,6.70
2018-01-12T04:56:03.296Z,6.67
2018-01-12T04:58:32.161Z,6.74
2018-01-12T05:01:02.920Z,6.69
2018-01-12T05:03:31.911Z,6.62
2018-01-12T05:06:01.050Z,6.66
2018-01-12T05:08:34.306Z,6.60
2018-01-12T05:11:04.345Z,6.60
2018-01-12T05:13:33.309Z,6.54
2018-01-12T05:16:03.534Z,6.49
2018-01-12T05:18:32.689Z,6.47
2018-01-12T05:21:01.628Z,6.48
2018-01-12T05:23:31.444Z,6.46
2018-01-12T05:26:01.483Z,6.44
2018-01-12T05:28:30.549Z,6.43
2018-01-12T05:30:59.854Z,6.37
2018-01-12T05:33:28.935Z,6.39
2018-01-12T05:35:57.818Z,6.42
2018-01-12T05:38:27.863Z,6.36
2018-01-12T05:40:57.055Z,6.43
2018-01-12T05:43:26.043Z,6.41
2018-01-12T05:45:55.007Z,6.42
2018-01-12T05:48:23.982Z,6.41
2018-01-12T05:50:59.379Z,6.42
2018-01-12T05:53:29.349Z,6.50
2018-01-12T05:56:00.402Z,6.50
2018-01-12T05:58:29.372Z,6.51
2018-01-12T06:01:10.298Z,6.48
2018-01-12T06:03:51.892Z,6.47
2018-01-12T06:06:22.027Z,6.55
2018-01-12T06:08:51.122Z,6.49
2018-01-12T06:11:20.306Z,6.62
2018-01-12T06:13:50.423Z,6.58
2018-01-12T06:16:19.429Z,6.60
2018-01-12T06:18:48.410Z,6.48
2018-01-12T06:21:17.652Z,6.54
2018-01-12T06:23:46.742Z,6.53
2018-01-12T06:26:15.901Z,6.59
2018-01-12T06:28:49.095Z,6.56
2018-01-12T06:31:18.078Z,6.48
2018-01-12T06:33:47.326Z,6.47
2018-01-12T06:36:16.385Z,6.58
2018-01-12T06:38:45.386Z,6.56
2018-01-12T06:41:14.520Z,6.55
2018-01-12T06:43:43.539Z,6.59
2018-01-12T06:46:12.676Z,6.57
2018-01-12T06:48:41.808Z,6.62
2018-01-12T06:51:11.035Z,6.54
2018-01-12T06:53:40.173Z,6.58
2018-01-12T06:56:09.285Z,6.67
2018-01-12T06:58:39.980Z,6.68
2018-01-12T07:01:09.198Z,6.60
2018-01-12T07:03:39.560Z,6.65
2018-01-12T07:06:09.564Z,6.68
2018-01-12T07:08:38.531Z,6.59
2018-01-12T07:11:07.769Z,6.56
2018-01-12T07:13:38.534Z,6.66
2018-01-12T07:16:08.379Z,6.61
2018-01-12T07:18:37.515Z,6.61
2018-01-12T07:21:19.372Z,6.70
2018-01-12T07:23:48.467Z,6.62
2018-01-12T07:26:17.354Z,6.71
2018-01-12T07:28:50.037Z,6.70
2018-01-12T07:31:19.206Z,6.65
2018-01-12T07:33:48.999Z,6.67
2018-01-12T07:36:20.592Z,6.67
2018-01-12T07:38:49.672Z,6.77
2018-01-12T07:41:19.742Z,6.69
2018-01-12T07:43:48.849Z,6.71
2018-01-12T07:46:19.025Z,6.81
2018-01-12T07:48:48.134Z,6.90
2018-01-12T07:51:21.735Z,7.00
2018-01-12T07:53:51.909Z,6.74
2018-01-12T07:56:20.886Z,6.82
2018-01-12T07:58:51.778Z,6.90
2018-01-12T08:01:26.442Z,6.92
2018-01-12T08:03:58.168Z,6.93
2018-01-12T08:06:28.091Z,6.94
2018-01-12T08:08:58.069Z,6.97
2018-01-12T08:14:03.222Z,7.08
2018-01-12T08:16:32.257Z,7.12
2018-01-12T08:19:01.307Z,7.25
2018-01-12T08:21:30.145Z,7.40
2018-01-12T08:23:58.936Z,7.36
2018-01-12T08:26:27.785Z,7.40
2018-01-12T08:28:56.676Z,7.44
2018-01-12T08:31:25.511Z,7.50
2018-01-12T08:33:56.234Z,7.38
2018-01-12T08:36:27.097Z,7.37
2018-01-12T08:38:56.059Z,7.44
2018-01-12T08:41:26.085Z,7.50
2018-01-12T08:43:55.226Z,7.66
2018-01-12T08:46:24.203Z,7.47
2018-01-12T08:48:53.213Z,7.38
2018-01-12T08:51:22.773Z,7.48
2018-01-12T08:53:51.795Z,7.29
2018-01-12T08:56:22.499Z,7.21
2018-01-12T08:58:51.503Z,7.32
2018-01-12T09:01:20.522Z,7.25
2018-01-12T09:03:50.369Z,7.29
2018-01-12T09:06:19.392Z,7.25
2018-01-12T09:08:48.599Z,7.32
2018-01-12T09:11:21.277Z,7.08
2018-01-12T09:13:56.823Z,7.12
2018-01-12T09:16:30.688Z,7.08
2018-01-12T09:19:11.399Z,6.94
2018-01-12T09:21:42.852Z,6.90
2018-01-12T09:24:23.670Z,6.87
2018-01-12T09:26:53.063Z,6.93
2018-01-12T09:29:23.346Z,6.99
2018-01-12T09:31:52.348Z,7.04
2018-01-12T09:37:25.943Z,6.94
2018-01-12T09:40:10.770Z,6.86
2018-01-12T09:42:40.931Z,6.95
2018-01-12T09:45:09.833Z,6.89
2018-01-12T09:47:44.216Z,6.84
2018-01-12T09:50:13.092Z,6.68
2018-01-12T09:52:41.922Z,6.78
2018-01-12T09:55:11.225Z,6.82
2018-01-12T09:57:40.052Z,6.76
2018-01-12T10:00:27.852Z,6.81
2018-01-12T10:02:56.707Z,6.90
2018-01-12T10:05:25.660Z,6.85
2018-01-12T10:08:18.655Z,6.90
2018-01-12T10:10:47.536Z,6.94
2018-01-12T10:13:16.386Z,6.78
2018-01-12T10:15:45.261Z,6.69
2018-01-12T10:21:25.315Z,6.62
2018-01-12T10:23:54.232Z,6.65
2018-01-12T10:26:23.020Z,6.69
2018-01-12T10:29:04.755Z,6.62
2018-01-12T10:31:51.473Z,6.52
2018-01-12T10:34:45.091Z,6.49
2018-01-12T10:37:14.004Z,6.60
2018-01-12T10:39:57.132Z,6.70
2018-01-12T10:42:26.226Z,6.55
2018-01-12T10:44:56.037Z,6.65
2018-01-12T10:47:27.079Z,6.56
2018-01-12T10:49:58.020Z,6.57
2018-01-12T10:52:39.700Z,6.63
2018-01-12T10:55:08.582Z,6.70
2018-01-12T10:57:37.484Z,6.63
2018-01-12T11:00:06.297Z,6.57
2018-01-12T11:02:35.238Z,6.69
2018-01-12T11:05:04.088Z,6.69
2018-01-12T11:07:35.388Z,6.67
2018-01-12T11:10:04.227Z,6.69
2018-01-12T11:12:33.068Z,6.72
2018-01-12T11:15:03.582Z,6.62
2018-01-12T11:17:32.443Z,6.71
2018-01-12T11:20:04.103Z,6.75
2018-01-12T11:22:32.996Z,6.69
2018-01-12T11:25:01.863Z,6.83
2018-01-12T11:27:30.753Z,6.72
2018-01-12T11:30:04.146Z,6.70
2018-01-12T11:32:32.961Z,6.67
2018-01-12T11:35:01.906Z,6.69
2018-01-12T11:37:30.767Z,6.78
2018-01-12T11:39:59.610Z,6.90
2018-01-12T11:42:28.426Z,6.91
2018-01-12T11:44:57.305Z,6.92
2018-01-12T11:47:26.104Z,6.82
2018-01-12T11:49:54.886Z,6.75
2018-01-12T11:52:23.735Z,6.76
2018-01-12T11:54:52.649Z,6.87
2018-01-12T11:57:21.461Z,6.91
2018-01-12T11:59:50.284Z,6.96
2018-01-12T12:02:19.119Z,6.83
2018-01-12T12:04:47.962Z,6.79
2018-01-12T12:07:16.910Z,6.80
2018-01-12T12:09:45.743Z,6.82
2018-01-12T12:12:14.598Z,6.79
2018-01-12T12:14:43.528Z,6.67
2018-01-12T12:17:12.353Z,6.62
2018-01-12T12:19:41.199Z,6.76
2018-01-12T12:22:12.783Z,6.72
2018-01-12T12:24:41.625Z,6.81
2018-01-12T12:27:10.440Z,6.73
2018-01-12T12:29:40.188Z,6.66
2018-01-12T12:32:08.993Z,6.65
2018-01-12T12:34:37.802Z,6.70
2018-01-12T12:37:06.644Z,6.62
2018-01-12T12:39:35.462Z,6.58
2018-01-12T12:42:04.302Z,6.71
2018-01-12T12:44:33.417Z,6.66
2018-01-12T12:47:02.203Z,6.61
2018-01-12T12:49:31.082Z,6.57
2018-01-12T12:52:01.106Z,6.59
2018-01-12T12:54:29.968Z,6.60
2018-01-12T12:56:58.837Z,6.65
2018-01-12T12:59:29.573Z,6.66
2018-01-12T13:01:58.411Z,6.67
2018-01-12T13:04:27.271Z,6.64
2018-01-12T13:06:56.372Z,6.70
2018-01-12T13:09:25.231Z,6.71
2018-01-12T13:11:54.031Z,6.78
2018-01-12T13:14:22.908Z,6.56
2018-01-12T13:16:51.748Z,6.53
2018-01-12T13:19:20.610Z,6.60
2018-01-12T13:21:50.395Z,6.42
2018-01-12T13:24:19.321Z,6.47
2018-01-12T13:26:48.165Z,6.53
2018-01-12T13:29:18.615Z,6.49
2018-01-12T13:31:47.442Z,6.45
2018-01-12T13:34:16.251Z,6.51
2018-01-12T13:36:45.116Z,6.38
2018-01-12T13:39:13.981Z,6.36
2018-01-12T13:41:42.842Z,6.37
2018-01-12T13:44:11.706Z,6.36
2018-01-12T13:46:40.535Z,6.44
2018-01-12T13:49:09.374Z,6.47
2018-01-12T13:51:38.262Z,6.40
2018-01-12T13:54:07.105Z,6.40
2018-01-12T13:56:35.963Z,6.33
2018-01-12T13:59:05.970Z,6.32
2018-01-12T14:01:34.814Z,6.25
2018-01-12T14:04:03.699Z,6.35
2018-01-12T14:06:34.154Z,6.38
2018-01-12T14:09:03.009Z,6.29
2018-01-12T14:11:31.896Z,6.23
2018-01-12T14:14:03.549Z,6.21
2018-01-12T14:16:32.419Z,6.30
2018-01-12T14:19:01.198Z,6.33
2018-01-12T14:21:32.778Z,6.30
2018-01-12T14:24:01.587Z,6.32
2018-01-12T14:26:30.430Z,6.27
2018-01-12T14:29:00.215Z,6.17
2018-01-12T14:31:29.028Z,6.21
2018-01-12T14:33:57.888Z,6.20
2018-01-12T14:36:27.655Z,6.23
2018-01-12T14:38:56.489Z,6.19
2018-01-12T14:41:25.303Z,6.21
2018-01-12T14:43:54.179Z,6.20
2018-01-12T14:46:23.013Z,6.21
2018-01-12T14:48:51.846Z,6.27
2018-01-12T14:51:20.813Z,6.21
2018-01-12T14:53:49.692Z,6.17
2018-01-12T14:56:18.535Z,6.16
2018-01-12T14:58:49.805Z,6.18
2018-01-12T15:01:18.736Z,6.19
2018-01-12T15:03:47.561Z,6.23
2018-01-12T15:06:16.417Z,6.24
2018-01-12T15:08:45.243Z,6.29
2018-01-12T15:11:14.046Z,6.28
2018-01-12T15:13:42.937Z,6.21
2018-01-12T15:16:11.830Z,6.11
2018-01-12T15:18:40.677Z,6.13
2018-01-12T15:21:13.403Z,6.21
2018-01-12T15:23:42.221Z,6.21
2018-01-12T15:26:11.062Z,6.20
2018-01-12T15:28:39.905Z,6.20
2018-01-12T15:31:08.930Z,6.12
2018-01-12T15:33:37.760Z,6.15
2018-01-12T15:36:08.301Z,6.15
2018-01-12T15:38:37.241Z,6.09
2018-01-12T15:41:06.042Z,6.13
2018-01-12T15:43:35.763Z,6.12
2018-01-12T15:46:04.641Z,6.15
2018-01-12T15:48:33.524Z,6.03
2018-01-12T15:51:02.639Z,6.00
2018-01-12T15:53:31.448Z,6.04
2018-01-12T15:56:00.265Z,5.88
2018-01-12T15:58:30.281Z,5.96
2018-01-12T16:00:59.115Z,5.96
2018-01-12T16:03:27.943Z,5.92
2018-01-12T16:06:00.063Z,5.92
2018-01-12T16:08:28.857Z,5.96
2018-01-12T16:10:57.798Z,6.04
2018-01-12T16:13:26.645Z,6.05
2018-01-12T16:15:55.500Z,5.95
2018-01-12T16:18:24.305Z,5.96
2018-01-12T16:20:54.118Z,5.99
2018-01-12T16:23:22.963Z,5.98
2018-01-12T16:25:51.782Z,5.88
2018-01-12T16:28:20.662Z,5.85
2018-01-12T16:30:49.555Z,5.92
2018-01-12T16:33:18.397Z,5.89
2018-01-12T16:35:48.150Z,5.79
2018-01-12T16:38:17.002Z,5.78
2018-01-12T16:40:45.836Z,5.69
2018-01-12T16:43:18.097Z,5.81
2018-01-12T16:45:46.993Z,5.75
2018-01-12T16:48:15.808Z,5.68
2018-01-12T16:50:44.793Z,5.79
2018-01-12T16:53:13.611Z,5.76
2018-01-12T16:55:42.428Z,5.74
2018-01-12T16:58:12.174Z,5.69
2018-01-12T17:00:41.086Z,5.67
2018-01-12T17:03:09.887Z,5.69
2018-01-12T17:05:39.555Z,5.66
2018-01-12T17:08:08.445Z,5.70
2018-01-12T17:10:37.288Z,5.73
2018-01-12T17:13:06.195Z,5.66
2018-01-12T17:15:34.999Z,5.76
2018-01-12T17:18:03.895Z,5.82
2018-01-12T17:20:32.810Z,5.80
2018-01-12T17:23:01.653Z,5.80
2018-01-12T17:25:30.494Z,5.79
2018-01-12T17:27:59.344Z,5.68
2018-01-12T17:30:28.180Z,5.69
2018-01-12T17:32:56.970Z,5.70
2018-01-12T17:35:28.474Z,5.65
2018-01-12T17:37:57.316Z,5.67
2018-01-12T17:40:26.230Z,5.68
2018-01-12T17:42:55.110Z,5.64
2018-01-12T17:45:23.942Z,5.67
2018-01-12T17:47:52.792Z,5.59
2018-01-12T17:50:24.141Z,5.69
2018-01-12T17:52:52.970Z,5.66
2018-01-12T17:55:21.813Z,5.69
2018-01-12T17:57:50.916Z,5.66
2018-01-12T18:00:19.801Z,5.74
2018-01-12T18:02:48.665Z,5.73
2018-01-12T18:05:19.744Z,5.55
2018-01-12T18:07:48.683Z,5.62
2018-01-12T18:10:17.535Z,5.64
2018-01-12T18:12:46.448Z,5.63
2018-01-12T18:15:15.291Z,5.68
2018-01-12T18:17:44.152Z,5.66
2018-01-12T18:20:15.843Z,5.57
2018-01-12T18:22:44.664Z,5.61
2018-01-12T18:25:13.547Z,5.54
2018-01-12T18:27:42.750Z,5.55
2018-01-12T18:30:11.605Z,5.63
2018-01-12T18:32:40.409Z,5.60
2018-01-12T18:35:10.460Z,5.60
2018-01-12T18:37:39.284Z,5.59
2018-01-12T18:40:08.146Z,5.59
2018-01-12T18:42:37.074Z,5.60
2018-01-12T18:45:06.061Z,5.61
2018-01-12T18:47:34.861Z,5.60
2018-01-12T18:50:04.615Z,5.58
2018-01-12T18:52:33.468Z,5.66
2018-01-12T18:55:02.371Z,5.76
2018-01-12T18:57:31.321Z,5.64
2018-01-12T19:00:00.250Z,5.61
2018-01-12T19:02:29.304Z,5.61
2018-01-12T19:04:58.227Z,5.65
2018-01-12T19:07:27.047Z,5.57
2018-01-12T19:09:55.977Z,5.56
2018-01-12T19:12:24.919Z,5.55
2018-01-12T19:14:53.779Z,5.56
2018-01-12T19:17:22.646Z,5.58
2018-01-12T19:19:52.444Z,5.58
2018-01-12T19:22:21.404Z,5.60
2018-01-12T19:24:50.371Z,5.68
2018-01-12T19:27:20.138Z,5.69
2018-01-12T19:29:49.187Z,5.54
2018-01-12T19:32:18.753Z,5.52
2018-01-12T19:34:51.231Z,5.55
2018-01-12T19:37:20.180Z,5.54
2018-01-12T19:39:49.164Z,5.57
2018-01-12T19:42:18.114Z,5.59
2018-01-12T19:44:47.059Z,5.58
2018-01-12T19:47:16.047Z,5.54
2018-01-12T19:49:45.941Z,5.54
2018-01-12T19:52:15.067Z,5.60
2018-01-12T19:54:44.151Z,5.60
2018-01-12T19:57:13.443Z,5.63
2018-01-12T19:59:42.424Z,5.57
2018-01-12T20:02:11.602Z,5.60
2018-01-12T20:04:42.226Z,5.68
2018-01-12T20:07:11.155Z,5.67
2018-01-12T20:09:40.420Z,5.55
2018-01-12T20:12:10.142Z,5.49
2018-01-12T20:14:39.213Z,5.52
2018-01-12T20:17:08.222Z,5.63
2018-01-12T20:19:37.311Z,5.57
2018-01-12T20:22:06.133Z,5.70
2018-01-12T20:24:35.030Z,5.66
2018-01-12T20:27:04.041Z,5.68
2018-01-12T20:29:32.907Z,5.56
2018-01-12T20:32:01.787Z,5.56
2018-01-12T20:34:30.854Z,5.55
2018-01-12T20:36:59.692Z,5.53
2018-01-12T20:39:28.517Z,5.53
2018-01-12T20:41:58.784Z,5.40
2018-01-12T20:44:27.727Z,5.38
2018-01-12T20:46:56.641Z,5.48
2018-01-12T20:49:28.126Z,5.47
2018-01-12T20:51:57.004Z,5.48
2018-01-12T20:54:25.823Z,5.49
2018-01-12T20:56:57.209Z,5.49
2018-01-12T20:59:26.102Z,5.48
2018-01-12T21:01:54.965Z,5.42
2018-01-12T21:04:23.785Z,5.29
2018-01-12T21:06:52.646Z,5.24
2018-01-12T21:09:21.823Z,5.23
2018-01-12T21:11:51.915Z,5.19
2018-01-12T21:14:21.088Z,5.25
2018-01-12T21:16:49.894Z,5.22
2018-01-12T21:19:21.233Z,5.30
2018-01-12T21:21:50.133Z,5.28
2018-01-12T21:24:20.750Z,5.27
2018-01-12T21:26:50.452Z,5.30
2018-01-12T21:29:19.272Z,5.31
2018-01-12T21:31:48.077Z,5.30
2018-01-12T21:34:16.948Z,5.31
2018-01-12T21:36:45.775Z,5.19
2018-01-12T21:39:14.624Z,5.19
2018-01-12T21:41:43.527Z,5.14
2018-01-12T21:44:12.344Z,5.09
2018-01-12T21:46:41.215Z,5.09
2018-01-12T21:49:10.240Z,5.08
2018-01-12T21:51:39.136Z,5.09
2018-01-12T21:54:08.124Z,5.11
2018-01-12T21:56:38.133Z,5.11
2018-01-12T21:59:07.031Z,5.09
2018-01-12T22:01:36.025Z,5.13
2018-01-12T22:04:04.907Z,5.11
2018-01-12T22:06:33.736Z,5.09
2018-01-12T22:09:02.700Z,5.10
2018-01-12T22:11:33.975Z,5.06
2018-01-12T22:14:02.854Z,5.20
2018-01-12T22:16:31.718Z,5.15
2018-01-12T22:19:01.467Z,5.12
2018-01-12T22:21:30.336Z,5.12
2018-01-12T22:23:59.164Z,5.09
2018-01-12T22:26:28.849Z,5.11
2018-01-12T22:28:57.764Z,5.10
2018-01-12T22:31:26.681Z,5.09
2018-01-12T22:33:56.494Z,5.02
2018-01-12T22:36:25.322Z,5.08
2018-01-12T22:38:54.231Z,5.10
2018-01-12T22:41:24.842Z,5.03
2018-01-12T22:43:53.664Z,5.04
2018-01-12T22:46:22.536Z,4.99
2018-01-12T22:48:51.446Z,4.83
2018-01-12T22:51:20.311Z,4.67
2018-01-12T22:53:49.099Z,4.49
2018-01-12T22:56:17.984Z,4.45
2018-01-12T22:58:46.829Z,4.45
2018-01-12T23:01:15.618Z,4.36
2018-01-12T23:03:44.790Z,4.40
2018-01-12T23:06:13.634Z,4.44
2018-01-12T23:08:42.603Z,4.39
2018-01-12T23:11:11.625Z,4.43
2018-01-12T23:13:40.614Z,4.48
2018-01-12T23:16:09.473Z,4.47
2018-01-12T23:18:38.597Z,4.49
2018-01-12T23:21:07.450Z,4.48
2018-01-12T23:23:36.434Z,4.52
2018-01-12T23:26:05.443Z,4.54
2018-01-12T23:28:34.434Z,4.53
2018-01-12T23:31:03.342Z,4.60
2018-01-12T23:33:37.364Z,4.58
2018-01-12T23:36:06.186Z,4.65
2018-01-12T23:38:35.069Z,4.58
2018-01-12T23:41:04.068Z,4.56
2018-01-12T23:43:33.057Z,4.42
2018-01-12T23:46:01.965Z,4.26
2018-01-12T23:48:33.906Z,4.17
2018-01-12T23:51:02.746Z,4.17
2018-01-12T23:53:31.712Z,4.11
2018-01-12T23:56:01.518Z,4.07
2018-01-12T23:58:30.610Z,3.95
